Weather observations for the past three days for
Spencer Municipal Airport
| Date | Time (cdt) | Wind (mph) | Vis. (mi.) | Weather | Sky Cond. | Temperature (ºF) | Relative Humidity | Wind Chill (°F) | Heat Index (°F) | Pressure | Precipitation (in) | ||||||
|---|---|---|---|---|---|---|---|---|---|---|---|---|---|---|---|---|---|
| Air | Dwpt | 6 hour | altimeter (in) | sea level (mb) | 1 hr | 3 hr | 6 hr | ||||||||||
| Max. | Min. | ||||||||||||||||
| 06 | 06:53 | W 3 | 10.00 | Overcast | OVC070 | 33.1 | 27 | 34 | 23 | 78% | 30.03 | 1017.7 | |||||
| 06 | 05:53 | W 3 | 10.00 | Overcast | OVC070 | 30.9 | 25 | 79% | 30.01 | 1017.2 | |||||||
| 06 | 04:53 | W 7 | 10.00 | Partly Cloudy | SCT070 | 24.1 | 19.9 | 84% | 17 | 30 | 1017.1 | ||||||
| 06 | 03:53 | Calm | 10.00 | Fair | CLR | 25 | 21 | 85% | 29.99 | 1016.6 | |||||||
| 06 | 02:53 | NW 6 | 10.00 | Fair | CLR | 27 | 21.9 | 81% | 21 | 29.98 | 1016.2 | ||||||
| 06 | 01:53 | NW 5 | 10.00 | Fair | CLR | 28.9 | 21.9 | 75% | 25 | 29.98 | 1016.3 | ||||||
| 06 | 00:53 | N 5 | 10.00 | Fair | CLR | 34 | 21.9 | 50 | 33.1 | 61% | 30 | 29.97 | 1015.9 | ||||
| 05 | 23:53 | NW 5 | 10.00 | Fair | CLR | 35.1 | 21.9 | 59% | 32 | 29.96 | 1015.4 | ||||||
| 05 | 22:53 | N 9 | 10.00 | Partly Cloudy | SCT075 | 42.1 | 23 | 47% | 37 | 29.96 | 1015.2 | ||||||
| 05 | 21:53 | NW 8 | 10.00 | Mostly Cloudy | BKN080 | 39.9 | 23 | 51% | 35 | 29.95 | 1014.8 | ||||||
| 05 | 20:53 | NW 8 | 10.00 | Partly Cloudy | SCT080 | 39.9 | 19.9 | 45% | 35 | 29.92 | 1014.0 | ||||||
| 05 | 19:53 | NW 13 | 10.00 | Mostly Cloudy | BKN080 | 48 | 19 | 32% | 43 | 29.9 | 1013.2 | ||||||
| 05 | 18:53 | NW 17 G 24 | 10.00 | Mostly Cloudy | BKN080 | 50 | 19.9 | 55 | 50 | 30% | 45 | 29.89 | 1013.0 | ||||
| 05 | 17:53 | NW 18 G 28 | 10.00 | Mostly Cloudy | BKN070 | 53.1 | 21.9 | 30% | 29.87 | 1012.5 | |||||||
| 05 | 16:53 | NW 14 G 25 | 10.00 | Overcast | OVC075 | 52 | 23 | 32% | 29.87 | 1012.5 | |||||||
| 05 | 15:53 | NW 14 G 25 | 10.00 | Overcast | OVC075 | 52 | 21.9 | 31% | 29.88 | 1012.6 | |||||||
| 05 | 14:53 | NW 17 G 24 | 10.00 | Mostly Cloudy | BKN075 | 54 | 21.9 | 29% | 29.88 | 1012.7 | |||||||
| 05 | 13:53 | NW 18 G 24 | 10.00 | Overcast | OVC070 | 52 | 24.1 | 34% | 29.89 | 1012.9 | |||||||
| 05 | 12:53 | NW 10 G 20 | 10.00 | Mostly Cloudy | BKN065 | 52 | 24.1 | 53.1 | 32 | 34% | 29.89 | 1012.8 | |||||
| 05 | 11:53 | NW 12 G 23 | 10.00 | Mostly Cloudy | BKN060 | 50 | 24.1 | 36% | 46 | 29.89 | 1012.8 | ||||||
| 05 | 10:53 | NW 12 G 18 | 10.00 | Partly Cloudy | SCT060 | 46.9 | 25 | 42% | 42 | 29.89 | 1012.7 | ||||||
| 05 | 09:53 | NW 10 | 10.00 | Fair | CLR | 46.9 | 25 | 42% | 43 | 29.89 | 1012.5 | ||||||
| 05 | 08:53 | NW 8 | 10.00 | Fair | CLR | 45 | 27 | 49% | 41 | 29.87 | 1012.2 | ||||||
| 05 | 07:53 | NW 6 | 10.00 | Fair | CLR | 41 | 30.9 | 67% | 38 | 29.86 | 1011.8 | ||||||
| 05 | 06:53 | NW 5 | 10.00 | Fair | CLR | 32 | 26.1 | 39.9 | 28 | 79% | 28 | 29.85 | 1011.6 | ||||
| 05 | 05:53 | W 7 | 10.00 | Fair | CLR | 30 | 24.1 | 79% | 24 | 29.82 | 1010.6 | ||||||
| 05 | 04:53 | W 5 | 10.00 | Fair | CLR | 30 | 25 | 82% | 26 | 29.81 | 1010.4 | ||||||
| 05 | 03:53 | NW 3 | 10.00 | Fair | CLR | 32 | 26.1 | 79% | 29.81 | 1009.8 | |||||||
| 05 | 02:53 | W 5 | 10.00 | Fair | CLR | 33.1 | 26.1 | 75% | 29 | 29.8 | 1009.4 | ||||||
| 05 | 01:53 | NW 5 | 10.00 | Fair | CLR | 36 | 27 | 70% | 33 | 29.79 | 1009.0 | ||||||
| 05 | 00:53 | NW 6 | 10.00 | Fair | CLR | 39.9 | 28.9 | 55 | 39.9 | 65% | 36 | 29.79 | 1008.9 | ||||
| 04 | 23:53 | NW 6 | 10.00 | Fair | CLR | 44.1 | 28 | 53% | 41 | 29.78 | 1008.4 | ||||||
| 04 | 22:53 | NW 6 | 10.00 | Fair | CLR | 46 | 28 | 50% | 44 | 29.78 | 1008.6 | ||||||
| 04 | 21:53 | NW 8 | 10.00 | Fair | CLR | 46.9 | 27 | 46% | 44 | 29.78 | 1008.3 | ||||||
| 04 | 20:53 | NW 12 | 10.00 | Fair | CLR | 50 | 25 | 38% | 46 | 29.76 | 1007.7 | ||||||
| 04 | 19:53 | NW 22 G 36 | 10.00 | Fair and Breezy | CLR | 52 | 26.1 | 37% | 29.74 | 1007.1 | |||||||
| 04 | 18:53 | NW 16 G 25 | 10.00 | Partly Cloudy | SCT120 | 55 | 28.9 | 69.1 | 54 | 37% | 29.71 | 1006.3 | |||||
| 04 | 17:53 | NW 24 G 35 | 10.00 | Mostly Cloudy and Breezy | BKN100 | 55.9 | 27 | 33% | 29.69 | 1005.5 | |||||||
| 04 | 16:53 | NW 20 G 37 | 10.00 | Light Rain | SCT050 BKN065 OVC100 | 54 | 37 | 53% | 29.69 | 1005.5 | |||||||
| 04 | 15:53 | NW 24 G 37 | 10.00 | Fair and Breezy | CLR | 64 | 30 | 28% | 29.65 | 1004.0 | |||||||
| 04 | 14:53 | NW 22 G 37 | 10.00 | Fair and Breezy | CLR | 66 | 32 | 28% | 29.64 | 1003.5 | |||||||
| 04 | 13:53 | NW 24 G 33 | 10.00 | Fair and Breezy | CLR | 66.9 | 30.9 | 26% | 29.63 | 1003.1 | |||||||
| 04 | 12:53 | NW 17 G 31 | 10.00 | Fair | CLR | 66.9 | 32 | 68 | 52 | 27% | 29.61 | 1002.6 | |||||
| 04 | 11:53 | NW 15 G 29 | 10.00 | Fair | CLR | 66.9 | 30.9 | 26% | 29.6 | 1002.2 | |||||||
| 04 | 10:53 | N 18 G 25 | 10.00 | Fair | CLR | 64.9 | 37.9 | 37% | 29.58 | 1001.6 | |||||||
| 04 | 09:53 | NW 15 G 28 | 10.00 | Fair | CLR | 64 | 41 | 43% | 29.56 | 1000.9 | |||||||
| 04 | 08:53 | W 18 | 10.00 | Fair | CLR | 64.9 | 39 | 39% | 29.56 | 1000.6 | |||||||
| 04 | 07:53 | SW 14 | 10.00 | Fair | CLR | 57 | 37 | 47% | 29.53 | 999.6 | |||||||
| 04 | 06:53 | SW 9 | 10.00 | Fair | CLR | 53.1 | 36 | 53.1 | 46.9 | 52% | 29.55 | 1000.1 | |||||
| 04 | 05:53 | SW 12 | 10.00 | Mostly Cloudy | BKN100 | 52 | 35.1 | 53% | 29.55 | 1000.4 | |||||||
| 04 | 04:53 | SW 13 | 10.00 | Fair | CLR | 52 | 34 | 50% | 29.57 | 1000.9 | |||||||
| 04 | 03:53 | SW 14 | 10.00 | Fair | CLR | 52 | 34 | 50% | 29.58 | 1001.4 | |||||||
| 04 | 02:53 | SW 13 | 10.00 | Fair | CLR | 51.1 | 34 | 52% | 29.61 | 1002.4 | |||||||
| 04 | 01:53 | SW 10 | 10.00 | Fair | CLR | 51.1 | 34 | 52% | 29.63 | 1003.2 | |||||||
| 04 | 00:53 | SW 8 | 10.00 | Fair | CLR | 48 | 34 | 71.1 | 48 | 58% | 45 | 29.66 | 1004.4 | ||||
| 03 | 23:53 | SW 7 | 10.00 | Fair | CLR | 50 | 32 | 50% | 48 | 29.67 | 1004.7 | ||||||
| 03 | 22:53 | SW 7 | 10.00 | Fair | CLR | 50 | 33.1 | 52% | 48 | 29.7 | 1005.7 | ||||||
| 03 | 21:53 | SW 6 | 10.00 | Fair | CLR | 54 | 30.9 | 42% | 29.73 | 1006.5 | |||||||
| 03 | 20:53 | W 9 | 10.00 | Fair | CLR | 55 | 30.9 | 40% | 29.73 | 1006.7 | |||||||
| 03 | 19:53 | W 9 | 10.00 | Fair | CLR | 66 | 30.9 | 27% | 29.73 | 1006.5 | |||||||
| 03 | 18:53 | W 14 | 10.00 | Fair | CLR | 70 | 34 | 73 | 68 | 27% | 29.73 | 1006.7 | |||||
| 03 | 17:53 | W 13 G 25 | 10.00 | Fair | CLR | 72 | 28.9 | 20% | 29.75 | 1007.1 | |||||||
| 03 | 16:53 | NW 15 G 23 | 10.00 | Fair | CLR | 73 | 30.9 | 21% | 29.76 | 1007.3 | |||||||
| 03 | 15:53 | NW 17 G 25 | 10.00 | Fair | CLR | 72 | 32 | 23% | 29.78 | 1007.9 | |||||||
| 03 | 14:53 | N 21 G 31 | 10.00 | Fair and Breezy | CLR | 71.1 | 30.9 | 23% | 29.8 | 1008.7 | |||||||
| 03 | 13:53 | NW 23 G 31 | 10.00 | Fair and Breezy | CLR | 70 | 33.1 | 26% | 29.81 | 1009.1 | |||||||
| 03 | 12:53 | N 18 G 32 | 10.00 | Fair | CLR | 68 | 34 | 69.1 | 46 | 28% | 29.83 | 1009.7 | |||||
| 03 | 11:53 | N 20 G 37 | 10.00 | Fair | CLR | 66.9 | 33.1 | 29% | 29.83 | 1009.9 | |||||||
| 03 | 10:53 | N 25 G 32 | 10.00 | Fair and Breezy | CLR | 64.9 | 35.1 | 33% | 29.83 | 1009.8 | |||||||
| 03 | 09:53 | NW 23 G 32 | 10.00 | Fair and Breezy | CLR | 63 | 35.1 | 35% | 29.82 | 1009.6 | |||||||
| 03 | 08:53 | N 21 G 28 | 10.00 | Fair and Breezy | CLR | 59 | 35.1 | 41% | 29.81 | 1009.4 | |||||||
| 03 | 07:53 | NW 16 G 23 | 10.00 | Fair | CLR | 55 | 35.1 | 47% | 29.8 | 1008.9 | |||||||
| Date | Time (cdt) | Wind (mph) | Vis. (mi.) | Weather | Sky Cond. | Air | Dwpt | Max. | Min. | Relative Humidity | Wind Chill (°F) | Heat Index (°F) | altimeter (in) | sea level (mb) | 1 hr | 3 hr | 6 hr |
| 6 hour | |||||||||||||||||
| Temperature (ºF) | Pressure | Precipitation (in) | |||||||||||||||